Terminal Aerodrome Forecast
Issued by NWS

Home | Current Version | Previous Version | Text Only | Print | Product List | Glossary On
Versions: 1 2 3 4 5 6 7 8 9 10 11 12 13
000
FTUS43 KDTX 161729
TAFPTK
TAF
KPTK 161729Z 1618/1718 11006KT P6SM BKN060
     FM162300 12005KT P6SM SCT050 OVC150
     FM170900 12007KT 5SM BR BKN028 OVC060
     FM171300 14009KT P6SM BKN030 PROB30 1713/1717 2SM +TSRA BKN014
      OVC022CB=

USA.gov is the U.S. government's official web portal to all federal, state and local government web resources and services.